Time;durP1;ratioP1;P1;durP2;ratioP2;P2;SDS_P1;SDS_P2;PMS_P1;PMS_P2;Temp;Humidity;BMP_temperature;BMP_pressure;BME280_temperature;BME280_humidity;BME280_pressure;Samples;Min_cycle;Max_cycle;Signal;HPM_P1;HPM_P2
2023/01/31 00:01:17;;;;;;;20.00;4.38;;;4.20;99.90;;;;;;5049533;28;20124;-49
2023/01/31 00:03:43;;;;;;;25.25;5.38;;;4.20;99.90;;;;;;5049654;28;20031;-48
2023/01/31 00:06:21;;;;;;;22.15;4.88;;;4.20;99.90;;;;;;5048905;28;20485;-48
2023/01/31 00:08:48;;;;;;;19.13;5.47;;;4.30;99.90;;;;;;5046317;28;20040;-51
2023/01/31 00:11:15;;;;;;;30.33;6.10;;;4.30;99.90;;;;;;5049228;28;20119;-49
2023/01/31 00:13:41;;;;;;;24.55;4.55;;;4.40;99.90;;;;;;5049166;28;20032;-48
2023/01/31 00:16:08;;;;;;;34.10;4.82;;;4.30;99.90;;;;;;5048850;28;20263;-49
2023/01/31 00:18:34;;;;;;;22.70;3.83;;;4.30;99.90;;;;;;5047762;28;20040;-50
2023/01/31 00:21:14;;;;;;;28.08;4.70;;;4.30;99.90;;;;;;5047598;28;20028;-39
2023/01/31 00:23:41;;;;;;;;;;;4.40;99.90;;;;;;5049507;28;20028;-39
2023/01/31 00:26:13;;;;;;;33.55;4.20;;;4.40;99.90;;;;;;5048322;28;19908;-39
2023/01/31 00:28:39;;;;;;;29.58;5.40;;;4.40;99.90;;;;;;5048983;28;20474;-39
2023/01/31 00:31:05;;;;;;;19.90;3.92;;;4.40;99.90;;;;;;5049012;28;20037;-39
2023/01/31 00:33:31;;;;;;;28.65;4.40;;;4.40;99.90;;;;;;5049424;28;20029;-40
2023/01/31 00:35:57;;;;;;;22.23;3.88;;;4.40;99.90;;;;;;5048449;28;20020;-39
2023/01/31 00:38:22;;;;;;;30.65;4.88;;;4.40;99.90;;;;;;5042707;28;20033;-39
2023/01/31 00:40:52;;;;;;;22.75;4.68;;;4.40;99.90;;;;;;5052093;28;20134;-39
2023/01/31 00:43:18;;;;;;;26.20;4.05;;;4.40;99.90;;;;;;5048514;28;20044;-39
2023/01/31 00:45:43;;;;;;;18.77;4.10;;;4.30;99.90;;;;;;5048323;28;20462;-39
2023/01/31 00:48:09;;;;;;;22.05;3.55;;;4.40;99.90;;;;;;5048872;28;20029;-40
2023/01/31 00:50:34;;;;;;;41.08;5.65;;;4.40;99.90;;;;;;5048266;28;20036;-49
2023/01/31 00:53:01;;;;;;;18.55;3.67;;;4.40;99.90;;;;;;5049235;28;20029;-48
2023/01/31 00:55:26;;;;;;;23.75;4.22;;;4.30;99.90;;;;;;5052027;28;20025;-51
2023/01/31 00:57:52;;;;;;;14.82;2.83;;;4.30;99.90;;;;;;5052317;28;20422;-49
2023/01/31 01:00:17;;;;;;;18.60;3.58;;;4.30;99.90;;;;;;5052619;28;20129;-40
2023/01/31 01:02:43;;;;;;;24.27;4.10;;;4.20;99.90;;;;;;5051018;28;20144;-40
2023/01/31 01:05:08;;;;;;;29.10;3.75;;;4.10;99.90;;;;;;5052315;28;20039;-40
2023/01/31 01:07:34;;;;;;;27.50;3.97;;;4.10;99.90;;;;;;5050348;28;20031;-40
2023/01/31 01:10:00;;;;;;;23.45;4.28;;;4.00;99.90;;;;;;5052422;28;20057;-40
2023/01/31 01:12:25;;;;;;;27.70;4.20;;;4.00;99.90;;;;;;5050514;28;20033;-40
2023/01/31 01:14:51;;;;;;;30.48;4.38;;;4.00;99.90;;;;;;5051895;28;20397;-40
2023/01/31 01:17:16;;;;;;;29.88;4.10;;;3.90;99.90;;;;;;5052633;28;20138;-40
2023/01/31 01:19:42;;;;;;;23.98;5.68;;;3.80;99.90;;;;;;5052137;28;20139;-40
2023/01/31 01:22:07;;;;;;;25.00;5.85;;;3.70;99.90;;;;;;5050719;28;20113;-39
2023/01/31 01:24:33;;;;;;;23.42;4.43;;;3.70;99.90;;;;;;5052276;28;20017;-39
2023/01/31 01:26:58;;;;;;;25.58;4.30;;;3.70;99.90;;;;;;5052118;28;20021;-39
2023/01/31 01:29:24;;;;;;;28.20;5.22;;;3.70;99.90;;;;;;5048755;28;20360;-39
2023/01/31 01:31:49;;;;;;;34.72;4.55;;;3.60;99.90;;;;;;5051965;28;20029;-39
2023/01/31 01:34:16;;;;;;;29.98;4.18;;;3.60;99.90;;;;;;5052200;28;20056;-39
2023/01/31 01:36:42;;;;;;;20.33;3.85;;;3.60;99.90;;;;;;5050231;28;20532;-39
2023/01/31 01:39:10;;;;;;;27.73;4.75;;;3.60;99.90;;;;;;5049925;28;20032;-39
2023/01/31 01:41:37;;;;;;;27.52;4.03;;;3.60;99.90;;;;;;5051033;28;20021;-39
2023/01/31 01:44:24;;;;;;;29.35;4.30;;;3.70;99.90;;;;;;5051919;28;20483;-39
2023/01/31 01:46:50;;;;;;;28.40;4.85;;;3.70;99.90;;;;;;5051312;28;20316;-40
2023/01/31 01:49:18;;;;;;;24.98;4.00;;;3.70;99.90;;;;;;5051695;28;20029;-40
2023/01/31 01:51:46;;;;;;;18.52;4.63;;;3.70;99.90;;;;;;5050123;28;20044;-39
2023/01/31 01:54:20;;;;;;;22.75;4.25;;;3.80;99.90;;;;;;5051920;28;20435;-40
2023/01/31 01:56:52;;;;;;;30.63;4.28;;;3.70;99.90;;;;;;5050892;28;20025;-40
2023/01/31 01:59:25;;;;;;;27.88;6.32;;;3.80;99.90;;;;;;5050172;28;20021;-40
2023/01/31 02:01:54;;;;;;;31.75;4.50;;;3.90;99.90;;;;;;5051478;28;20033;-40
2023/01/31 02:04:23;;;;;;;22.55;4.30;;;3.90;99.90;;;;;;5051446;28;20049;-40
2023/01/31 02:06:50;;;;;;;25.02;4.75;;;3.90;99.90;;;;;;5050818;28;20067;-40
2023/01/31 02:09:46;;;;;;;33.13;5.15;;;3.90;99.90;;;;;;5049699;28;20021;-40
2023/01/31 02:12:12;;;;;;;21.55;4.45;;;3.80;99.90;;;;;;5039808;28;20086;-40
2023/01/31 02:14:38;;;;;;;28.65;5.00;;;3.80;99.90;;;;;;5050801;28;20100;-40
2023/01/31 02:17:03;;;;;;;25.80;3.83;;;3.70;99.90;;;;;;5051323;28;20170;-48
2023/01/31 02:20:03;;;;;;;21.40;4.53;;;3.70;99.90;;;;;;5051171;28;20033;-51
2023/01/31 02:22:38;;;;;;;25.38;5.93;;;3.70;99.90;;;;;;5050875;28;20025;-48
2023/01/31 02:25:21;;;;;;;32.35;4.47;;;3.70;99.90;;;;;;5050848;28;20033;-48
2023/01/31 02:28:05;;;;;;;27.15;4.03;;;3.60;99.90;;;;;;5050854;28;20060;-48
2023/01/31 02:30:43;;;;;;;17.55;3.92;;;3.60;99.90;;;;;;5051182;28;20397;-48
2023/01/31 02:33:23;;;;;;;24.35;3.92;;;3.70;99.90;;;;;;5051232;28;20122;-49
2023/01/31 02:35:59;;;;;;;17.75;4.15;;;3.70;99.90;;;;;;5051007;28;20036;-49
2023/01/31 02:38:44;;;;;;;22.58;3.80;;;3.70;99.90;;;;;;5045369;28;20032;-48
2023/01/31 02:41:41;;;;;;;20.77;5.90;;;3.70;99.90;;;;;;5051778;28;20116;-49
2023/01/31 02:47:43;;;;;;;19.58;5.38;;;3.70;99.90;;;;;;5031085;28;20082;-50
2023/01/31 02:50:31;;;;;;;21.95;4.20;;;3.70;99.90;;;;;;5029406;28;20030;-49
2023/01/31 02:53:02;;;;;;;21.17;4.60;;;3.80;99.90;;;;;;5030789;28;20028;-49
2023/01/31 02:58:31;;;;;;;31.67;4.40;;;3.80;99.90;;;;;;5030946;28;20083;-47
2023/01/31 03:01:02;;;;;;;25.13;3.97;;;3.80;99.90;;;;;;5030397;28;20153;-50
2023/01/31 03:03:33;;;;;;;26.17;4.07;;;3.80;99.90;;;;;;5030537;28;20033;-50
2023/01/31 03:06:21;;;;;;;;;;;3.90;99.90;;;;;;5030284;28;20383;-47
2023/01/31 03:08:50;;;;;;;19.55;4.22;;;3.90;99.90;;;;;;5040008;28;20281;-49
2023/01/31 03:11:16;;;;;;;20.02;3.35;;;3.90;99.90;;;;;;5049955;28;20075;-47
2023/01/31 03:13:50;;;;;;;22.55;3.95;;;3.90;99.90;;;;;;5049074;28;20033;-48
2023/01/31 03:19:31;;;;;;;33.15;5.13;;;4.00;99.90;;;;;;5050523;28;20561;-48
2023/01/31 03:22:04;;;;;;;31.35;4.10;;;4.10;99.90;;;;;;5050360;28;20025;-48
2023/01/31 03:24:30;;;;;;;32.05;5.57;;;4.10;99.90;;;;;;5048394;28;20024;-50
2023/01/31 03:27:00;;;;;;;20.85;4.50;;;4.10;99.90;;;;;;5049345;28;20061;-49
2023/01/31 03:29:28;;;;;;;26.60;5.30;;;4.20;99.90;;;;;;5049934;28;20013;-51
2023/01/31 03:31:59;;;;;;;23.67;4.50;;;4.20;99.90;;;;;;5049830;28;20025;-50
2023/01/31 03:34:26;;;;;;;23.20;4.90;;;4.20;99.90;;;;;;5049940;28;20475;-48
2023/01/31 03:37:17;;;;;;;18.52;3.72;;;4.20;99.90;;;;;;5049293;28;20112;-49
2023/01/31 03:40:03;;;;;;;26.05;4.00;;;4.30;99.90;;;;;;5045719;28;20033;-50
2023/01/31 03:42:32;;;;;;;34.70;5.35;;;4.20;99.90;;;;;;5048840;28;20025;-48
2023/01/31 03:45:08;;;;;;;24.37;4.80;;;4.20;99.90;;;;;;5049518;28;20486;-50
2023/01/31 03:47:40;;;;;;;23.23;4.40;;;4.20;99.90;;;;;;5049692;28;20025;-49
2023/01/31 03:50:15;;;;;;;30.40;5.03;;;4.30;99.90;;;;;;5049291;28;20068;-51
2023/01/31 03:52:57;;;;;;;22.58;4.97;;;4.30;99.90;;;;;;5049384;28;20029;-49
2023/01/31 03:55:47;;;;;;;19.80;3.80;;;4.30;99.90;;;;;;5048858;28;20032;-51
2023/01/31 03:58:18;;;;;;;29.88;4.53;;;4.30;99.90;;;;;;5049039;28;20048;-49
2023/01/31 04:00:46;;;;;;;21.52;5.20;;;4.20;99.90;;;;;;5049110;28;20462;-52
2023/01/31 04:03:38;;;;;;;16.75;3.95;;;4.20;99.90;;;;;;5049382;28;20250;-49
2023/01/31 04:06:04;;;;;;;20.80;3.60;;;4.10;99.90;;;;;;5049198;28;20017;-48
2023/01/31 04:08:31;;;;;;;20.70;4.53;;;4.10;99.90;;;;;;5044536;28;20029;-48
2023/01/31 04:10:58;;;;;;;21.65;4.32;;;4.10;99.90;;;;;;5051524;28;20028;-48
2023/01/31 04:13:23;;;;;;;18.67;4.60;;;4.10;99.90;;;;;;5048863;28;20140;-50
2023/01/31 04:15:49;;;;;;;28.92;4.55;;;4.20;99.90;;;;;;5048663;28;20075;-49
2023/01/31 04:18:14;;;;;;;17.98;3.17;;;4.20;99.90;;;;;;5048945;28;20332;-49
2023/01/31 04:20:40;;;;;;;25.33;4.20;;;4.10;99.90;;;;;;5048991;28;20033;-48
2023/01/31 04:23:05;;;;;;;19.67;3.70;;;4.10;99.90;;;;;;5049082;28;20048;-48
2023/01/31 04:25:31;;;;;;;24.65;3.78;;;4.20;99.90;;;;;;5048313;28;20036;-50
2023/01/31 04:27:56;;;;;;;19.05;3.28;;;4.20;99.90;;;;;;5048728;28;20139;-50
2023/01/31 04:30:22;;;;;;;22.33;3.67;;;4.20;99.90;;;;;;5049425;28;20021;-49
2023/01/31 04:32:47;;;;;;;20.10;3.38;;;4.10;99.90;;;;;;5049102;28;20017;-49
2023/01/31 04:35:13;;;;;;;19.02;3.35;;;4.10;99.90;;;;;;5048223;28;20048;-49
2023/01/31 04:37:39;;;;;;;17.95;3.90;;;4.10;99.90;;;;;;5045867;28;20132;-51
2023/01/31 04:40:05;;;;;;;18.98;4.45;;;4.00;99.90;;;;;;5049391;28;20037;-50
2023/01/31 04:42:30;;;;;;;26.30;4.05;;;4.10;99.90;;;;;;5047983;28;20061;-39
2023/01/31 04:44:56;;;;;;;16.67;4.15;;;4.00;99.90;;;;;;5048251;28;20060;-39
2023/01/31 04:47:21;;;;;;;29.48;5.53;;;4.00;99.90;;;;;;5047525;28;20028;-40
2023/01/31 04:49:47;;;;;;;35.35;6.40;;;4.00;99.90;;;;;;5048502;28;20275;-40
2023/01/31 04:52:12;;;;;;;23.10;4.68;;;4.10;99.90;;;;;;5048566;28;20490;-40
2023/01/31 04:54:38;;;;;;;29.02;5.63;;;4.10;99.90;;;;;;5047895;28;20040;-39
2023/01/31 04:57:03;;;;;;;27.90;5.20;;;4.10;99.90;;;;;;5048265;28;20584;-40
2023/01/31 04:59:29;;;;;;;27.27;6.40;;;4.10;99.90;;;;;;5048578;28;20021;-40
2023/01/31 05:01:54;;;;;;;24.92;4.25;;;4.10;99.90;;;;;;5048365;28;20510;-39
2023/01/31 05:04:21;;;;;;;26.20;5.22;;;4.10;99.90;;;;;;5048751;28;20100;-39
2023/01/31 05:06:47;;;;;;;19.10;6.00;;;4.20;99.90;;;;;;5047912;28;20021;-39
2023/01/31 05:09:12;;;;;;;13.75;4.32;;;4.20;99.90;;;;;;5046431;28;20013;-39
2023/01/31 05:11:38;;;;;;;28.60;5.70;;;4.10;99.90;;;;;;5039514;28;20083;-39
2023/01/31 05:14:03;;;;;;;25.77;4.85;;;4.20;99.90;;;;;;5048694;28;20032;-39
2023/01/31 05:16:29;;;;;;;26.30;4.78;;;4.20;99.90;;;;;;5047685;28;20057;-40
2023/01/31 05:18:55;;;;;;;29.58;5.57;;;4.20;99.90;;;;;;5048878;28;20224;-39
2023/01/31 05:21:20;;;;;;;30.55;5.13;;;4.20;99.90;;;;;;5047045;28;20045;-39
2023/01/31 05:23:46;;;;;;;41.63;7.35;;;4.20;99.90;;;;;;5046917;28;20113;-48
2023/01/31 05:26:12;;;;;;;27.33;5.32;;;4.20;99.90;;;;;;5047603;28;20032;-49
2023/01/31 05:28:37;;;;;;;19.88;4.47;;;4.10;99.90;;;;;;5048147;28;20021;-50
2023/01/31 05:31:06;;;;;;;37.00;4.90;;;4.10;99.90;;;;;;5048412;28;20047;-49
2023/01/31 05:33:32;;;;;;;27.70;4.47;;;4.20;99.90;;;;;;5048237;28;20430;-49
2023/01/31 05:35:58;;;;;;;22.88;4.88;;;4.20;99.90;;;;;;5047897;28;20068;-50
2023/01/31 05:38:24;;;;;;;26.02;4.43;;;4.20;99.90;;;;;;5043147;28;20037;-50
2023/01/31 05:40:50;;;;;;;33.63;4.90;;;4.20;99.90;;;;;;5053890;28;20017;-48
2023/01/31 05:43:16;;;;;;;24.00;4.90;;;4.20;99.90;;;;;;5051649;28;20467;-51
2023/01/31 05:45:41;;;;;;;26.85;4.72;;;4.20;99.90;;;;;;5051556;28;20457;-51
2023/01/31 05:48:07;;;;;;;24.30;4.75;;;4.20;99.90;;;;;;5051838;28;20028;-49
2023/01/31 05:50:33;;;;;;;24.23;4.60;;;4.20;99.90;;;;;;5051622;28;20048;-51
2023/01/31 05:52:59;;;;;;;22.75;4.15;;;4.10;99.90;;;;;;5051271;28;20402;-51
2023/01/31 05:55:26;;;;;;;35.35;4.28;;;4.10;99.90;;;;;;5050944;28;20029;-51
2023/01/31 05:57:53;;;;;;;37.50;6.05;;;4.10;99.90;;;;;;5051386;28;20029;-48
2023/01/31 06:00:19;;;;;;;23.25;4.50;;;4.20;99.90;;;;;;5051879;28;20043;-49
2023/01/31 06:02:45;;;;;;;26.00;4.70;;;4.20;99.90;;;;;;5051520;28;20029;-49
2023/01/31 06:05:11;;;;;;;16.65;3.65;;;4.10;99.90;;;;;;5051453;28;20044;-49
2023/01/31 06:07:37;;;;;;;18.30;3.75;;;4.10;99.90;;;;;;5049686;28;20310;-50
2023/01/31 06:10:04;;;;;;;17.17;3.10;;;4.10;99.90;;;;;;5051201;28;20451;-49
2023/01/31 06:12:30;;;;;;;25.85;4.35;;;4.10;99.90;;;;;;5051204;28;20398;-49
2023/01/31 06:14:55;;;;;;;23.80;4.05;;;4.10;99.90;;;;;;5050697;28;20029;-48
2023/01/31 06:17:22;;;;;;;14.90;3.47;;;4.10;99.90;;;;;;5051235;28;20087;-48
2023/01/31 06:19:48;;;;;;;29.63;3.58;;;4.20;99.90;;;;;;5048720;28;20047;-47
2023/01/31 06:22:14;;;;;;;22.15;3.45;;;4.10;99.90;;;;;;5052467;28;20020;-49
2023/01/31 06:24:39;;;;;;;22.42;3.45;;;4.10;99.90;;;;;;5059850;28;20013;-48
2023/01/31 06:27:05;;;;;;;23.95;3.30;;;4.00;99.90;;;;;;5052258;28;20025;-48
2023/01/31 06:29:30;;;;;;;21.50;4.72;;;4.00;99.90;;;;;;5051823;28;20029;-48
2023/01/31 06:31:56;;;;;;;22.67;4.05;;;4.00;99.90;;;;;;5052462;28;20063;-47
2023/01/31 06:34:21;;;;;;;38.30;4.53;;;4.00;99.90;;;;;;5060336;28;20027;-48
2023/01/31 06:36:47;;;;;;;22.98;3.47;;;3.90;99.90;;;;;;5051822;28;20036;-48
2023/01/31 06:39:13;;;;;;;25.00;4.40;;;3.90;99.90;;;;;;5051943;28;20064;-48
2023/01/31 06:41:38;;;;;;;29.17;4.50;;;3.90;99.90;;;;;;5056109;28;20028;-48
2023/01/31 06:44:04;;;;;;;16.70;3.95;;;3.90;99.90;;;;;;5052102;28;20063;-48
2023/01/31 06:46:30;;;;;;;24.42;3.50;;;4.00;99.90;;;;;;5051407;28;20088;-51
2023/01/31 06:48:55;;;;;;;32.97;4.28;;;3.90;99.90;;;;;;5058261;28;20463;-48
2023/01/31 06:51:21;;;;;;;24.45;4.03;;;3.90;99.90;;;;;;5051264;28;20178;-49
2023/01/31 06:53:46;;;;;;;19.48;5.78;;;3.90;99.90;;;;;;5051897;28;20037;-49
2023/01/31 06:56:12;;;;;;;28.42;4.63;;;3.90;99.90;;;;;;5051346;28;20087;-48
2023/01/31 06:58:37;;;;;;;23.77;4.53;;;3.90;99.90;;;;;;5051994;28;20032;-48
2023/01/31 07:01:05;;;;;;;34.67;7.15;;;3.90;99.90;;;;;;5051884;28;20031;-49
2023/01/31 07:03:30;;;;;;;32.53;4.57;;;3.90;99.90;;;;;;5052039;28;20524;-48
2023/01/31 07:05:56;;;;;;;19.98;4.45;;;3.90;99.90;;;;;;5050415;28;20029;-49
2023/01/31 07:08:21;;;;;;;23.08;4.55;;;3.90;99.90;;;;;;5051641;28;20851;-50
2023/01/31 07:10:47;;;;;;;22.38;5.20;;;3.90;99.90;;;;;;5051897;28;20105;-52
2023/01/31 07:13:13;;;;;;;28.65;4.82;;;3.90;99.90;;;;;;5051885;28;20048;-49
2023/01/31 07:15:39;;;;;;;20.42;4.57;;;3.90;99.90;;;;;;5051177;28;20028;-50
2023/01/31 07:18:05;;;;;;;24.30;4.68;;;3.90;99.90;;;;;;5046134;28;20032;-49
2023/01/31 07:20:30;;;;;;;22.13;3.90;;;3.90;99.90;;;;;;5041966;28;20066;-48
2023/01/31 07:22:57;;;;;;;17.42;4.50;;;3.90;99.90;;;;;;5047889;28;20060;-49
2023/01/31 07:25:23;;;;;;;31.33;5.40;;;3.90;99.90;;;;;;5051353;28;20480;-49
2023/01/31 07:27:49;;;;;;;17.92;3.97;;;4.00;99.90;;;;;;5050163;28;20048;-49
2023/01/31 07:30:15;;;;;;;22.60;4.20;;;4.10;99.90;;;;;;5051258;28;20712;-49
2023/01/31 07:32:40;;;;;;;18.85;3.85;;;4.00;99.90;;;;;;5051774;28;20078;-49
2023/01/31 07:35:07;;;;;;;27.92;4.25;;;4.10;99.90;;;;;;5051143;28;20370;-49
2023/01/31 07:37:32;;;;;;;24.35;4.63;;;4.10;99.90;;;;;;5051656;28;20025;-47
2023/01/31 07:39:58;;;;;;;18.50;4.55;;;4.00;99.90;;;;;;5051260;28;20024;-49
2023/01/31 07:42:24;;;;;;;18.92;4.07;;;4.00;99.90;;;;;;5051201;28;20032;-47
2023/01/31 07:44:49;;;;;;;21.05;4.50;;;4.10;99.90;;;;;;5050678;28;20048;-48
2023/01/31 07:47:15;;;;;;;35.20;5.35;;;4.10;99.90;;;;;;5051273;28;20029;-49
2023/01/31 07:49:40;;;;;;;24.40;4.80;;;4.20;99.90;;;;;;5049998;28;20021;-50
2023/01/31 07:52:06;;;;;;;36.20;4.85;;;4.20;99.90;;;;;;5048090;28;20036;-50
2023/01/31 07:54:31;;;;;;;23.42;4.38;;;4.30;99.90;;;;;;5049247;28;20131;-49
2023/01/31 07:56:57;;;;;;;25.60;5.45;;;4.30;99.90;;;;;;5047842;28;20114;-48
2023/01/31 07:59:22;;;;;;;25.55;4.53;;;4.40;99.90;;;;;;5049349;28;20046;-48
2023/01/31 08:04:33;;;;;;;28.08;5.13;;;4.50;99.90;;;;;;5047410;28;20550;-48
2023/01/31 08:07:01;;;;;;;15.95;4.43;;;4.60;99.90;;;;;;5048799;28;20028;-48
2023/01/31 08:09:27;;;;;;;27.63;5.07;;;4.60;99.90;;;;;;5048863;28;20017;-51
2023/01/31 08:11:53;;;;;;;32.92;6.40;;;4.70;99.90;;;;;;5031558;28;20374;-50
2023/01/31 08:14:24;;;;;;;17.60;4.40;;;4.70;99.90;;;;;;5049080;28;20075;-50
2023/01/31 08:16:50;;;;;;;28.77;4.95;;;4.80;99.90;;;;;;5048237;28;20502;-48
2023/01/31 08:19:15;;;;;;;28.23;4.88;;;4.80;99.90;;;;;;5048934;28;20100;-47
2023/01/31 08:21:41;;;;;;;26.20;5.30;;;4.80;99.90;;;;;;5047541;28;20119;-47
2023/01/31 08:24:07;;;;;;;31.15;6.90;;;4.90;99.90;;;;;;5048545;28;20032;-51
2023/01/31 08:26:32;;;;;;;31.58;6.55;;;4.80;99.90;;;;;;5048515;28;20091;-48
2023/01/31 08:28:58;;;;;;;17.85;5.18;;;4.90;99.90;;;;;;5049019;28;20544;-48
2023/01/31 08:31:25;;;;;;;23.45;6.32;;;5.00;99.90;;;;;;5048101;28;20023;-48
2023/01/31 08:33:52;;;;;;;37.20;6.10;;;5.00;99.90;;;;;;5048064;28;20025;-48
2023/01/31 08:36:19;;;;;;;26.25;6.45;;;5.00;99.90;;;;;;5047994;28;20025;-48
2023/01/31 08:38:44;;;;;;;28.83;7.22;;;5.00;99.90;;;;;;5048766;28;20284;-49
2023/01/31 08:41:11;;;;;;;28.85;6.65;;;5.10;99.90;;;;;;5048520;28;20028;-48
2023/01/31 08:43:36;;;;;;;30.15;7.00;;;5.10;99.90;;;;;;5048641;28;20059;-49
2023/01/31 08:46:05;;;;;;;29.15;6.40;;;5.20;99.90;;;;;;5048282;28;20057;-48
2023/01/31 08:48:33;;;;;;;22.40;6.35;;;5.20;99.90;;;;;;5048529;28;20116;-49
2023/01/31 08:51:02;;;;;;;28.50;7.65;;;5.30;99.90;;;;;;5048171;28;20032;-51
2023/01/31 08:53:28;;;;;;;30.17;7.77;;;5.40;99.90;;;;;;5048331;28;20116;-50
2023/01/31 08:56:01;;;;;;;37.08;8.07;;;5.40;99.90;;;;;;5047777;28;20111;-50
2023/01/31 08:58:27;;;;;;;38.67;8.88;;;5.40;99.90;;;;;;5048139;28;20083;-49
2023/01/31 09:00:53;;;;;;;29.95;8.35;;;5.50;99.90;;;;;;5048608;28;20036;-47
2023/01/31 09:03:19;;;;;;;31.85;8.35;;;5.60;99.90;;;;;;5048512;28;20028;-50
2023/01/31 09:05:45;;;;;;;28.13;8.38;;;5.70;99.90;;;;;;5048109;28;20108;-49
2023/01/31 09:08:11;;;;;;;29.67;8.23;;;5.80;99.90;;;;;;5048777;28;20096;-48
2023/01/31 09:10:37;;;;;;;31.00;7.13;;;5.80;99.90;;;;;;5048523;28;20340;-48
2023/01/31 09:13:02;;;;;;;26.40;8.05;;;5.90;99.90;;;;;;5050180;28;20577;-48
2023/01/31 09:15:28;;;;;;;28.02;7.50;;;5.80;99.90;;;;;;5050634;28;20035;-49
2023/01/31 09:17:53;;;;;;;23.67;7.43;;;5.90;99.90;;;;;;5052421;28;20134;-49
2023/01/31 09:20:19;;;;;;;27.05;7.80;;;6.00;99.90;;;;;;5045931;28;20032;-48
2023/01/31 09:22:45;;;;;;;28.63;8.70;;;6.00;99.90;;;;;;5043959;28;20477;-49
2023/01/31 09:25:10;;;;;;;28.73;9.00;;;6.00;99.90;;;;;;5043323;28;20396;-51
2023/01/31 09:27:37;;;;;;;26.40;7.30;;;5.80;99.90;;;;;;5042387;28;20021;-48
2023/01/31 09:30:07;;;;;;;36.72;8.60;;;5.80;99.90;;;;;;5044390;28;20361;-48
2023/01/31 09:32:33;;;;;;;28.45;8.45;;;5.90;99.90;;;;;;5048388;28;20032;-49
2023/01/31 09:34:59;;;;;;;29.10;8.15;;;5.90;99.90;;;;;;5044951;28;20021;-49
2023/01/31 09:37:25;;;;;;;30.67;8.32;;;6.00;99.90;;;;;;5043889;28;20056;-52
2023/01/31 09:39:50;;;;;;;28.85;8.40;;;6.00;99.90;;;;;;5043832;28;20029;-49
2023/01/31 09:42:24;;;;;;;26.20;8.95;;;6.10;99.90;;;;;;5042102;28;20068;-50
2023/01/31 09:45:06;;;;;;;22.35;8.73;;;6.40;99.90;;;;;;5044064;28;20104;-48
2023/01/31 09:47:42;;;;;;;28.88;8.13;;;6.40;99.90;;;;;;5041873;28;20100;-49
2023/01/31 09:50:21;;;;;;;25.52;8.93;;;6.40;99.90;;;;;;5045118;28;20049;-50
2023/01/31 09:52:48;;;;;;;21.58;8.30;;;6.30;99.90;;;;;;5043592;28;20025;-49
2023/01/31 09:55:38;;;;;;;26.00;8.00;;;6.40;99.90;;;;;;5041101;28;20034;-49
2023/01/31 09:58:32;;;;;;;29.17;9.00;;;6.20;99.90;;;;;;5040815;28;20041;-49
2023/01/31 10:01:09;;;;;;;27.75;8.98;;;6.10;99.90;;;;;;5040136;28;20032;-48
2023/01/31 10:03:41;;;;;;;35.17;8.38;;;6.10;99.90;;;;;;5047547;28;20017;-49
2023/01/31 10:06:21;;;;;;;34.92;9.27;;;6.10;99.90;;;;;;5043489;28;20421;-50
2023/01/31 10:08:59;;;;;;;33.08;9.07;;;6.00;99.90;;;;;;5042950;28;20626;-47
2023/01/31 10:11:37;;;;;;;29.20;9.15;;;6.10;99.90;;;;;;5042321;28;20088;-47
2023/01/31 10:14:20;;;;;;;35.25;9.63;;;6.20;99.90;;;;;;5044122;28;20028;-49
2023/01/31 10:16:56;;;;;;;34.50;9.98;;;6.30;99.90;;;;;;5042020;28;20540;-48
2023/01/31 10:19:27;;;;;;;26.50;7.72;;;6.30;99.90;;;;;;5049562;28;20458;-49
2023/01/31 10:21:59;;;;;;;25.33;7.97;;;6.40;99.90;;;;;;5044364;28;20032;-50
2023/01/31 10:25:03;;;;;;;24.98;8.38;;;6.50;99.90;;;;;;5043774;28;20028;-52
2023/01/31 10:28:08;;;;;;;27.85;8.70;;;6.50;99.90;;;;;;4985242;28;20029;-47
2023/01/31 10:31:11;;;;;;;27.92;9.75;;;6.40;99.90;;;;;;5028215;28;20060;-48
2023/01/31 10:33:46;;;;;;;21.38;9.43;;;6.00;99.90;;;;;;5032251;28;20026;-52
2023/01/31 10:36:25;;;;;;;31.08;11.15;;;5.80;99.90;;;;;;5042390;28;20029;-48
2023/01/31 10:39:03;;;;;;;32.30;11.00;;;5.70;99.90;;;;;;5042658;28;20105;-48
2023/01/31 10:42:02;;;;;;;26.17;10.98;;;5.50;99.90;;;;;;5042246;28;20025;-47
2023/01/31 10:44:53;;;;;;;35.28;11.48;;;5.30;99.90;;;;;;5042117;28;20017;-47
2023/01/31 10:47:24;;;;;;;26.27;11.38;;;5.20;99.90;;;;;;5043380;28;20109;-50
2023/01/31 10:49:50;;;;;;;39.47;13.35;;;5.10;99.90;;;;;;5032326;28;20700;-51
2023/01/31 10:52:45;;;;;;;39.30;13.70;;;5.10;99.90;;;;;;5042885;28;20219;-48
2023/01/31 10:55:27;;;;;;;33.45;13.18;;;5.00;99.90;;;;;;5044334;28;20076;-47
2023/01/31 10:57:53;;;;;;;40.75;14.82;;;4.90;99.90;;;;;;5039696;28;20554;-38
2023/01/31 11:00:26;;;;;;;32.60;14.27;;;5.00;99.90;;;;;;5040604;28;20120;-39
2023/01/31 11:02:52;;;;;;;34.30;13.50;;;5.00;99.90;;;;;;5041854;28;20022;-49
2023/01/31 11:05:23;;;;;;;33.42;14.30;;;4.90;99.90;;;;;;5040011;28;20548;-49
2023/01/31 11:07:51;;;;;;;31.45;14.45;;;4.90;99.90;;;;;;5033572;28;20032;-49
2023/01/31 11:10:31;;;;;;;33.80;14.43;;;4.90;99.90;;;;;;5031800;28;20036;-49
2023/01/31 11:13:03;;;;;;;26.58;12.48;;;4.90;99.90;;;;;;5032144;28;20025;-47
2023/01/31 11:15:38;;;;;;;25.38;11.38;;;4.90;99.90;;;;;;5030192;28;20056;-48
2023/01/31 11:18:04;;;;;;;27.83;12.73;;;4.90;99.90;;;;;;5031499;28;20072;-48
2023/01/31 11:20:36;;;;;;;31.52;12.85;;;4.80;99.90;;;;;;5030390;28;20025;-48
2023/01/31 11:23:05;;;;;;;36.03;12.65;;;4.80;99.90;;;;;;5051261;28;20506;-47
2023/01/31 11:25:32;;;;;;;23.88;11.65;;;4.90;99.90;;;;;;5051270;28;20067;-49
2023/01/31 11:28:01;;;;;;;30.48;11.35;;;4.90;99.90;;;;;;5051367;28;20112;-48
2023/01/31 11:30:30;;;;;;;27.17;10.88;;;5.00;99.90;;;;;;5051564;28;20658;-48
2023/01/31 11:32:55;;;;;;;32.58;12.93;;;5.00;99.90;;;;;;5051670;28;20025;-48
2023/01/31 11:35:25;;;;;;;21.48;10.90;;;5.00;99.90;;;;;;5051053;28;20513;-50
2023/01/31 11:38:11;;;;;;;29.40;15.17;;;5.00;99.90;;;;;;5049509;28;20020;-50
2023/01/31 11:40:39;;;;;;;25.48;11.00;;;4.90;99.90;;;;;;5043607;28;20037;-48
2023/01/31 11:43:23;;;;;;;27.08;12.40;;;5.00;99.90;;;;;;5051087;28;20033;-49
2023/01/31 11:45:59;;;;;;;23.75;9.95;;;5.00;99.90;;;;;;5050244;28;20013;-48
2023/01/31 11:48:35;;;;;;;18.70;10.25;;;5.10;99.90;;;;;;5050069;28;20032;-49
2023/01/31 11:51:02;;;;;;;25.98;10.85;;;5.10;99.90;;;;;;5051307;28;20053;-47
2023/01/31 11:53:45;;;;;;;27.73;10.20;;;5.00;99.90;;;;;;5049813;28;20021;-48
2023/01/31 11:56:19;;;;;;;30.75;11.93;;;5.00;99.90;;;;;;5050561;28;20104;-48
2023/01/31 11:58:47;;;;;;;23.10;11.65;;;5.00;99.90;;;;;;5051044;28;20544;-48
2023/01/31 12:01:17;;;;;;;21.42;9.93;;;5.00;99.90;;;;;;5051019;28;20458;-47
2023/01/31 12:03:55;;;;;;;27.58;11.07;;;4.90;99.90;;;;;;5049154;28;20104;-50
2023/01/31 12:06:35;;;;;;;26.38;11.55;;;5.00;99.90;;;;;;5042357;28;20037;-49
2023/01/31 12:09:20;;;;;;;24.10;11.13;;;5.00;99.90;;;;;;5041521;28;20025;-47
2023/01/31 12:11:57;;;;;;;29.45;11.98;;;5.10;99.90;;;;;;5039574;28;20076;-50
2023/01/31 12:14:35;;;;;;;19.40;11.07;;;5.10;99.90;;;;;;5040197;28;20021;-48
2023/01/31 12:17:01;;;;;;;27.27;11.52;;;5.10;99.90;;;;;;5047196;28;20474;-47
2023/01/31 12:19:45;;;;;;;22.15;11.15;;;5.20;99.90;;;;;;5042747;28;20024;-48
2023/01/31 12:22:20;;;;;;;22.17;11.45;;;5.10;99.90;;;;;;5048691;28;20052;-51
2023/01/31 12:24:55;;;;;;;19.50;11.13;;;5.10;99.90;;;;;;5048629;28;20036;-48
2023/01/31 12:27:26;;;;;;;25.67;11.63;;;5.20;99.90;;;;;;5048892;28;20112;-49
2023/01/31 12:30:10;;;;;;;29.58;12.18;;;5.20;99.90;;;;;;5048817;28;20064;-48
2023/01/31 12:32:43;;;;;;;25.05;11.60;;;5.10;99.90;;;;;;5048876;28;20025;-47
2023/01/31 12:35:18;;;;;;;23.00;11.85;;;5.10;99.90;;;;;;5048134;28;20616;-50
2023/01/31 12:38:00;;;;;;;35.22;12.93;;;5.20;99.90;;;;;;5048268;28;20057;-48
2023/01/31 12:40:34;;;;;;;22.25;10.20;;;5.20;99.90;;;;;;5048539;28;20025;-49
2023/01/31 12:43:24;;;;;;;20.73;11.25;;;5.30;99.90;;;;;;5048706;28;20051;-48
2023/01/31 12:46:16;;;;;;;39.60;12.90;;;5.30;99.90;;;;;;5047045;28;20029;-49
2023/01/31 12:49:01;;;;;;;23.80;12.25;;;5.30;99.90;;;;;;5048351;28;20017;-47
2023/01/31 12:51:47;;;;;;;32.53;12.80;;;5.30;99.90;;;;;;5048151;28;20029;-50
2023/01/31 12:54:16;;;;;;;22.88;11.77;;;5.30;99.90;;;;;;5048514;28;20444;-48
2023/01/31 12:56:57;;;;;;;21.73;11.40;;;5.30;99.90;;;;;;5047966;28;20367;-47
2023/01/31 12:59:41;;;;;;;32.20;11.90;;;5.40;99.90;;;;;;5048175;28;20039;-47
2023/01/31 13:02:07;;;;;;;25.92;12.00;;;5.50;99.90;;;;;;5048200;28;20029;-47
2023/01/31 13:04:39;;;;;;;36.08;13.75;;;5.50;99.90;;;;;;5048420;28;20025;-51
2023/01/31 13:07:28;;;;;;;23.77;13.43;;;5.50;99.90;;;;;;5048145;28;20033;-48
2023/01/31 13:09:58;;;;;;;29.17;14.20;;;5.40;99.90;;;;;;5034302;28;20033;-48
2023/01/31 13:12:28;;;;;;;28.77;13.75;;;5.40;99.90;;;;;;5048364;28;20036;-48
2023/01/31 13:15:33;;;;;;;23.57;14.27;;;5.40;99.90;;;;;;5047743;28;20036;-49